createdAt,value
2022-09-14T00:01:32.211Z,14.34
2022-09-14T00:04:12.335Z,14.41
2022-09-14T00:06:51.379Z,14.40
2022-09-14T00:14:46.077Z,14.41
2022-09-14T00:17:18.256Z,14.39
2022-09-14T00:19:53.734Z,14.34
2022-09-14T00:22:21.565Z,14.44
2022-09-14T00:24:58.891Z,14.51
2022-09-14T00:27:27.573Z,14.45
2022-09-14T00:29:56.512Z,14.37
2022-09-14T00:32:24.626Z,14.40
2022-09-14T00:34:53.585Z,14.36
2022-09-14T00:37:26.642Z,14.32
2022-09-14T00:39:58.183Z,14.38
2022-09-14T00:42:29.673Z,14.45
2022-09-14T00:45:14.173Z,14.34
2022-09-14T00:47:56.130Z,14.46
2022-09-14T00:50:24.556Z,14.50
2022-09-14T00:52:58.339Z,14.50
2022-09-14T00:55:28.492Z,14.58
2022-09-14T00:57:58.201Z,14.57
2022-09-14T01:00:29.979Z,14.68
2022-09-14T01:03:06.958Z,14.61
2022-09-14T01:05:41.990Z,14.61
2022-09-14T01:08:42.204Z,14.58
2022-09-14T01:11:59.417Z,14.59
2022-09-14T01:15:07.097Z,14.56
2022-09-14T01:18:03.985Z,14.58
2022-09-14T01:20:47.676Z,14.58
2022-09-14T01:23:51.915Z,14.60
2022-09-14T01:26:30.014Z,14.60
2022-09-14T01:29:18.919Z,14.63
2022-09-14T01:32:19.464Z,14.51
2022-09-14T01:35:12.086Z,14.57
2022-09-14T01:37:54.000Z,14.52
2022-09-14T01:40:38.977Z,14.42
2022-09-14T01:43:38.233Z,14.42
2022-09-14T01:46:13.644Z,14.30
2022-09-14T01:49:36.244Z,14.34
2022-09-14T01:58:54.727Z,14.20
2022-09-14T02:01:35.770Z,14.06
2022-09-14T02:04:11.075Z,14.13
2022-09-14T02:06:46.822Z,13.92
2022-09-14T02:09:22.248Z,13.99
2022-09-14T02:11:54.317Z,13.95
2022-09-14T02:14:25.497Z,14.02
2022-09-14T02:16:56.828Z,14.02
2022-09-14T02:19:29.983Z,13.93
2022-09-14T02:22:13.042Z,14.04
2022-09-14T02:24:43.997Z,14.10
2022-09-14T02:27:11.826Z,14.06
2022-09-14T02:29:42.950Z,14.04
2022-09-14T02:33:02.156Z,14.13
2022-09-14T02:35:50.378Z,14.01
2022-09-14T02:38:43.456Z,13.97
2022-09-14T02:41:19.163Z,14.00
2022-09-14T02:44:09.971Z,13.98
2022-09-14T02:47:19.820Z,13.93
2022-09-14T02:50:19.015Z,13.88
2022-09-14T02:53:18.741Z,13.96
2022-09-14T02:55:59.677Z,13.98
2022-09-14T02:58:48.310Z,13.88
2022-09-14T03:01:24.057Z,13.92
2022-09-14T03:03:55.639Z,14.00
2022-09-14T03:06:27.064Z,13.85
2022-09-14T03:08:56.238Z,13.91
2022-09-14T03:11:25.426Z,13.98
2022-09-14T03:13:57.273Z,14.05
2022-09-14T03:16:27.530Z,14.11
2022-09-14T03:18:59.301Z,14.00
2022-09-14T03:21:30.351Z,13.91
2022-09-14T03:24:00.130Z,13.92
2022-09-14T03:26:39.400Z,13.90
2022-09-14T03:29:08.163Z,14.00
2022-09-14T03:31:37.567Z,13.99
2022-09-14T03:34:06.765Z,13.96
2022-09-14T03:36:38.225Z,13.93
2022-09-14T03:39:07.510Z,13.95
2022-09-14T03:41:39.366Z,13.96
2022-09-14T03:44:08.462Z,14.08
2022-09-14T03:46:38.512Z,14.10
2022-09-14T03:49:09.913Z,14.10
2022-09-14T03:51:40.060Z,14.11
2022-09-14T03:54:19.889Z,14.19
2022-09-14T03:56:57.834Z,14.06
2022-09-14T03:59:27.390Z,14.16
2022-09-14T04:02:00.247Z,14.13
2022-09-14T04:04:33.924Z,14.06
2022-09-14T04:07:04.321Z,13.97
2022-09-14T04:09:34.997Z,13.92
2022-09-14T04:12:03.497Z,14.02
2022-09-14T04:14:37.827Z,14.07
2022-09-14T04:17:09.527Z,14.07
2022-09-14T04:19:40.357Z,14.03
2022-09-14T04:22:13.005Z,14.05
2022-09-14T04:24:42.758Z,14.04
2022-09-14T04:27:27.033Z,14.07
2022-09-14T04:29:57.224Z,14.16
2022-09-14T04:32:34.079Z,14.07
2022-09-14T04:35:04.030Z,14.05
2022-09-14T04:37:34.890Z,14.00
2022-09-14T04:40:04.136Z,14.05
2022-09-14T04:42:41.058Z,14.03
2022-09-14T04:45:09.912Z,14.06
2022-09-14T04:47:51.650Z,14.11
2022-09-14T04:50:20.797Z,14.19
2022-09-14T04:52:49.896Z,14.14
2022-09-14T04:55:35.942Z,14.23
2022-09-14T04:58:05.360Z,14.24
2022-09-14T05:00:37.771Z,14.21
2022-09-14T05:03:10.871Z,14.25
2022-09-14T05:05:49.940Z,14.33
2022-09-14T05:08:19.672Z,14.35
2022-09-14T05:10:47.368Z,14.29
2022-09-14T05:13:19.139Z,14.44
2022-09-14T05:15:47.602Z,14.54
2022-09-14T05:18:17.192Z,14.68
2022-09-14T05:20:49.102Z,14.63
2022-09-14T05:23:20.473Z,14.66
2022-09-14T05:25:55.902Z,14.63
2022-09-14T05:28:36.087Z,14.63
2022-09-14T05:31:15.461Z,14.63
2022-09-14T05:33:45.034Z,14.60
2022-09-14T05:36:14.743Z,14.55
2022-09-14T05:38:45.937Z,14.63
2022-09-14T05:41:18.067Z,14.57
2022-09-14T05:43:46.519Z,14.61
2022-09-14T05:46:17.789Z,14.62
2022-09-14T05:48:47.824Z,14.71
2022-09-14T05:51:34.036Z,14.67
2022-09-14T05:54:10.995Z,14.60
2022-09-14T05:56:45.291Z,14.60
2022-09-14T05:59:19.101Z,14.70
2022-09-14T06:01:47.672Z,14.70
2022-09-14T06:04:18.265Z,14.75
2022-09-14T06:07:17.331Z,14.67
2022-09-14T06:09:47.600Z,14.70
2022-09-14T06:12:17.776Z,14.71
2022-09-14T06:14:55.444Z,14.64
2022-09-14T06:17:31.926Z,14.74
2022-09-14T06:20:10.527Z,14.80
2022-09-14T06:22:38.580Z,14.72
2022-09-14T06:25:07.882Z,14.73
2022-09-14T06:27:37.219Z,14.76
2022-09-14T06:30:08.037Z,14.89
2022-09-14T06:32:37.049Z,14.84
2022-09-14T06:35:10.363Z,14.89
2022-09-14T06:37:44.047Z,14.93
2022-09-14T06:40:15.402Z,14.95
2022-09-14T06:42:45.611Z,14.96
2022-09-14T06:45:16.904Z,14.98
2022-09-14T06:47:54.540Z,15.09
2022-09-14T06:50:24.848Z,15.09
2022-09-14T06:53:04.529Z,15.12
2022-09-14T06:55:33.615Z,15.18
2022-09-14T06:58:11.593Z,15.28
2022-09-14T07:00:44.432Z,15.32
2022-09-14T07:03:16.700Z,15.27
2022-09-14T07:05:45.423Z,15.30
2022-09-14T07:08:20.520Z,15.35
2022-09-14T07:11:01.793Z,15.34
2022-09-14T07:13:34.841Z,15.43
2022-09-14T07:16:04.227Z,15.57
2022-09-14T07:18:34.886Z,15.60
2022-09-14T07:21:17.169Z,15.66
2022-09-14T07:23:51.188Z,15.65
2022-09-14T07:26:36.545Z,15.64
2022-09-14T07:29:06.994Z,15.60
2022-09-14T07:31:52.174Z,15.60
2022-09-14T07:34:21.040Z,15.53
2022-09-14T07:36:59.058Z,15.60
2022-09-14T07:39:28.542Z,15.48
2022-09-14T07:41:56.538Z,15.68
2022-09-14T07:44:29.550Z,15.69
2022-09-14T07:46:58.409Z,15.78
2022-09-14T07:49:27.880Z,15.57
2022-09-14T07:51:56.908Z,15.78
2022-09-14T07:54:28.093Z,15.77
2022-09-14T07:56:59.446Z,15.66
2022-09-14T07:59:35.995Z,15.59
2022-09-14T08:02:09.338Z,15.62
2022-09-14T08:04:39.735Z,15.76
2022-09-14T08:07:09.166Z,15.74
2022-09-14T08:09:47.852Z,15.70
2022-09-14T08:12:19.728Z,15.84
2022-09-14T08:14:56.586Z,15.76
2022-09-14T08:20:16.295Z,15.83
2022-09-14T08:22:46.924Z,15.96
2022-09-14T08:25:16.574Z,15.96
2022-09-14T08:27:47.861Z,16.14
2022-09-14T08:30:17.181Z,16.09
2022-09-14T08:32:52.666Z,16.15
2022-09-14T08:35:53.646Z,16.24
2022-09-14T08:38:23.314Z,16.18
2022-09-14T08:40:53.792Z,15.96
2022-09-14T08:43:28.141Z,16.00
2022-09-14T08:46:04.211Z,16.03
2022-09-14T08:48:42.638Z,15.91
2022-09-14T08:51:13.889Z,16.05
2022-09-14T08:53:48.825Z,16.01
2022-09-14T08:56:30.125Z,15.89
2022-09-14T08:59:41.775Z,16.17
2022-09-14T09:02:48.994Z,16.31
2022-09-14T09:05:42.462Z,16.21
2022-09-14T09:08:50.712Z,16.11
2022-09-14T09:11:23.695Z,16.22
2022-09-14T09:13:54.805Z,16.25
2022-09-14T09:16:26.354Z,16.13
2022-09-14T09:19:06.190Z,16.32
2022-09-14T09:21:42.882Z,16.49
2022-09-14T09:24:29.424Z,16.63
2022-09-14T09:26:59.433Z,16.88
2022-09-14T09:29:29.367Z,16.98
2022-09-14T09:32:00.227Z,16.86
2022-09-14T09:34:32.406Z,16.93
2022-09-14T09:37:02.060Z,16.77
2022-09-14T09:39:43.046Z,16.76
2022-09-14T09:42:29.196Z,16.82
2022-09-14T09:45:04.567Z,16.92
2022-09-14T09:47:42.363Z,17.04
2022-09-14T09:50:25.815Z,16.94
2022-09-14T09:53:03.335Z,17.13
2022-09-14T09:55:40.517Z,17.20
2022-09-14T09:58:40.069Z,17.06
2022-09-14T10:01:31.912Z,16.95
2022-09-14T10:04:08.545Z,16.82
2022-09-14T10:16:18.073Z,16.40
2022-09-14T10:18:51.668Z,16.45
2022-09-14T10:21:26.605Z,16.62
2022-09-14T10:24:15.576Z,16.70
2022-09-14T10:26:48.374Z,16.80
2022-09-14T10:29:40.385Z,16.72
2022-09-14T10:32:32.900Z,16.75
2022-09-14T10:35:02.202Z,16.82
2022-09-14T10:38:09.716Z,16.88
2022-09-14T10:40:55.332Z,16.74
2022-09-14T10:44:05.964Z,16.72
2022-09-14T10:46:54.821Z,16.50
2022-09-14T10:49:40.052Z,16.45
2022-09-14T10:52:28.953Z,16.49
2022-09-14T10:55:20.581Z,16.56
2022-09-14T10:58:06.297Z,16.66
2022-09-14T11:00:47.399Z,16.62
2022-09-14T11:03:46.316Z,16.83
2022-09-14T11:06:54.542Z,17.03
2022-09-14T11:09:38.582Z,17.14
2022-09-14T11:12:54.644Z,17.16
2022-09-14T11:15:50.048Z,17.23
2022-09-14T11:18:50.860Z,17.70
2022-09-14T11:21:44.732Z,17.72
2022-09-14T11:24:31.362Z,17.85
2022-09-14T11:27:09.004Z,17.69
2022-09-14T11:29:46.881Z,17.57
2022-09-14T11:32:45.254Z,17.63
2022-09-14T11:35:51.475Z,17.72
2022-09-14T11:38:38.820Z,17.76
2022-09-14T11:41:22.171Z,17.86
2022-09-14T11:44:55.493Z,17.93
2022-09-14T11:47:25.285Z,17.93
2022-09-14T11:50:29.502Z,18.27
2022-09-14T11:53:15.832Z,18.68
2022-09-14T11:55:50.957Z,18.80
2022-09-14T11:58:24.040Z,19.01
2022-09-14T12:01:06.158Z,18.79
2022-09-14T12:04:14.909Z,18.65
2022-09-14T12:06:52.046Z,18.50
2022-09-14T12:09:32.872Z,18.62
2022-09-14T12:12:26.750Z,18.71
2022-09-14T12:15:04.427Z,18.63
2022-09-14T12:17:39.831Z,18.70
2022-09-14T12:20:36.867Z,18.93
2022-09-14T12:23:08.275Z,19.00
2022-09-14T12:25:41.870Z,18.81
2022-09-14T12:28:48.673Z,18.84
2022-09-14T12:32:02.834Z,18.95
2022-09-14T12:34:33.946Z,18.88
2022-09-14T12:37:34.267Z,19.08
2022-09-14T12:40:23.294Z,19.17
2022-09-14T12:42:55.613Z,19.49
2022-09-14T12:45:55.194Z,19.75
2022-09-14T12:48:53.707Z,19.73
2022-09-14T12:51:33.006Z,19.87
2022-09-14T12:54:34.203Z,19.90
2022-09-14T12:57:34.719Z,19.78
2022-09-14T13:00:08.286Z,20.13
2022-09-14T13:03:18.434Z,20.23
2022-09-14T13:05:48.535Z,21.31
2022-09-14T13:08:26.082Z,21.51
2022-09-14T13:10:55.152Z,21.03
2022-09-14T13:13:29.626Z,20.05
2022-09-14T13:16:07.934Z,20.51
2022-09-14T13:18:43.187Z,20.45
2022-09-14T13:21:24.274Z,20.50
2022-09-14T13:23:53.747Z,21.17
2022-09-14T13:26:37.825Z,21.22
2022-09-14T13:29:08.639Z,21.19
2022-09-14T13:31:39.796Z,20.91
2022-09-14T13:34:13.500Z,20.53
2022-09-14T13:36:59.376Z,20.46
2022-09-14T13:39:44.520Z,20.19
2022-09-14T13:42:29.303Z,20.11
2022-09-14T13:45:01.983Z,20.19
2022-09-14T13:47:54.642Z,20.06
2022-09-14T13:50:35.317Z,20.15
2022-09-14T13:53:04.439Z,20.66
2022-09-14T13:55:36.086Z,20.65
2022-09-14T13:58:10.149Z,20.79
2022-09-14T14:01:13.273Z,20.92
2022-09-14T14:03:52.902Z,21.68
2022-09-14T14:06:25.260Z,22.17
2022-09-14T14:09:03.530Z,22.58
2022-09-14T14:11:41.309Z,22.77
2022-09-14T14:14:32.799Z,22.58
2022-09-14T14:17:26.422Z,22.26
2022-09-14T14:20:24.339Z,21.85
2022-09-14T14:23:21.793Z,21.40
2022-09-14T14:25:55.789Z,21.32
2022-09-14T14:28:30.972Z,21.18
2022-09-14T14:31:08.736Z,21.27
2022-09-14T14:33:48.119Z,20.96
2022-09-14T14:36:20.469Z,20.71
2022-09-14T14:38:51.478Z,20.55
2022-09-14T14:41:23.690Z,20.42
2022-09-14T14:43:54.952Z,20.40
2022-09-14T14:46:32.454Z,20.30
2022-09-14T14:49:02.236Z,20.25
2022-09-14T14:51:34.152Z,20.15
2022-09-14T14:54:03.308Z,20.17
2022-09-14T14:56:31.075Z,20.13
2022-09-14T14:59:28.056Z,20.11
2022-09-14T15:01:58.561Z,20.03
2022-09-14T15:04:27.192Z,20.05
2022-09-14T15:07:06.884Z,19.88
2022-09-14T15:09:37.450Z,19.86
2022-09-14T15:12:09.697Z,19.85
2022-09-14T15:14:42.105Z,19.80
2022-09-14T15:17:16.877Z,19.78
2022-09-14T15:19:49.325Z,19.73
2022-09-14T15:25:01.428Z,19.66
2022-09-14T15:27:36.282Z,19.62
2022-09-14T15:30:07.617Z,19.71
2022-09-14T15:32:50.841Z,19.60
2022-09-14T15:35:23.624Z,19.65
2022-09-14T15:37:53.600Z,19.61
2022-09-14T15:40:22.746Z,19.57
2022-09-14T15:42:51.289Z,19.57
2022-09-14T15:45:20.311Z,19.52
2022-09-14T15:47:52.371Z,19.51
2022-09-14T15:50:24.657Z,19.50
2022-09-14T15:52:58.056Z,19.51
2022-09-14T15:55:34.689Z,19.45
2022-09-14T15:58:23.507Z,19.50
2022-09-14T16:00:53.994Z,19.44
2022-09-14T16:03:27.692Z,19.34
2022-09-14T16:06:03.218Z,19.40
2022-09-14T16:08:34.552Z,19.39
2022-09-14T16:11:14.171Z,19.43
2022-09-14T16:13:44.074Z,19.35
2022-09-14T16:16:16.880Z,19.41
2022-09-14T16:18:48.434Z,19.35
2022-09-14T16:21:21.264Z,19.37
2022-09-14T16:23:58.727Z,19.33
2022-09-14T16:26:43.461Z,19.30
2022-09-14T16:31:57.245Z,19.25
2022-09-14T16:34:29.657Z,19.14
2022-09-14T16:37:03.366Z,19.15
2022-09-14T16:39:38.137Z,19.02
2022-09-14T16:42:09.410Z,19.01
2022-09-14T16:44:38.283Z,19.00
2022-09-14T16:47:08.045Z,18.95
2022-09-14T16:49:45.171Z,18.97
2022-09-14T16:52:12.965Z,18.88
2022-09-14T16:54:44.252Z,18.85
2022-09-14T16:57:15.314Z,18.87
2022-09-14T16:59:43.604Z,18.86
2022-09-14T17:02:14.515Z,18.85
2022-09-14T17:04:43.670Z,18.89
2022-09-14T17:07:11.373Z,18.90
2022-09-14T17:09:42.473Z,18.85
2022-09-14T17:12:11.760Z,18.86
2022-09-14T17:14:47.199Z,18.85
2022-09-14T17:17:19.348Z,18.88
2022-09-14T17:19:53.634Z,18.84
2022-09-14T17:22:21.194Z,18.82
2022-09-14T17:24:52.752Z,18.84
2022-09-14T17:27:30.649Z,18.81
2022-09-14T17:30:02.204Z,18.77
2022-09-14T17:32:30.262Z,18.79
2022-09-14T17:35:02.566Z,18.78
2022-09-14T17:37:33.655Z,18.74
2022-09-14T17:40:03.451Z,18.71
2022-09-14T17:42:34.067Z,18.59
2022-09-14T17:45:04.767Z,18.59
2022-09-14T17:47:36.091Z,18.56
2022-09-14T17:50:04.513Z,18.46
2022-09-14T17:52:44.055Z,18.41
2022-09-14T17:55:15.180Z,18.43
2022-09-14T17:57:52.700Z,18.40
2022-09-14T18:00:23.992Z,18.32
2022-09-14T18:02:54.860Z,18.30
2022-09-14T18:05:24.085Z,18.27
2022-09-14T18:08:01.841Z,18.22
2022-09-14T18:10:32.181Z,18.19
2022-09-14T18:13:03.181Z,18.15
2022-09-14T18:15:39.768Z,17.98
2022-09-14T18:18:11.456Z,17.97
2022-09-14T18:20:41.287Z,18.04
2022-09-14T18:23:10.712Z,17.96
2022-09-14T18:25:44.947Z,17.97
2022-09-14T18:28:14.204Z,18.04
2022-09-14T18:30:46.563Z,17.97
2022-09-14T18:33:24.163Z,17.97
2022-09-14T18:35:57.377Z,17.99
2022-09-14T18:38:29.904Z,17.94
2022-09-14T18:41:07.276Z,17.99
2022-09-14T18:43:36.761Z,17.85
2022-09-14T18:46:08.812Z,17.89
2022-09-14T18:48:40.840Z,17.87
2022-09-14T18:51:11.771Z,17.82
2022-09-14T18:53:40.754Z,17.77
2022-09-14T18:56:25.671Z,17.84
2022-09-14T18:59:05.725Z,17.78
2022-09-14T19:01:43.964Z,17.83
2022-09-14T19:04:25.040Z,17.86
2022-09-14T19:07:03.004Z,17.86
2022-09-14T19:09:36.530Z,17.89
2022-09-14T19:12:08.919Z,17.96
2022-09-14T19:14:39.862Z,17.89
2022-09-14T19:17:10.106Z,17.90
2022-09-14T19:19:52.928Z,17.89
2022-09-14T19:22:24.104Z,18.01
2022-09-14T19:25:04.464Z,17.96
2022-09-14T19:27:36.516Z,17.97
2022-09-14T19:30:05.589Z,17.95
2022-09-14T19:32:36.920Z,17.91
2022-09-14T19:35:07.099Z,18.00
2022-09-14T19:37:36.641Z,17.99
2022-09-14T19:40:06.231Z,17.93
2022-09-14T19:42:36.656Z,18.02
2022-09-14T19:45:08.282Z,17.85
2022-09-14T19:47:38.746Z,17.90
2022-09-14T19:50:16.775Z,17.82
2022-09-14T19:52:48.327Z,17.82
2022-09-14T19:55:22.363Z,17.67
2022-09-14T19:57:50.143Z,17.60
2022-09-14T20:00:19.866Z,17.45
2022-09-14T20:02:48.315Z,17.28
2022-09-14T20:05:20.260Z,17.23
2022-09-14T20:07:53.040Z,17.19
2022-09-14T20:10:25.083Z,17.22
2022-09-14T20:12:54.995Z,17.18
2022-09-14T20:15:24.226Z,17.23
2022-09-14T20:17:56.400Z,17.20
2022-09-14T20:20:25.128Z,17.26
2022-09-14T20:22:55.521Z,17.31
2022-09-14T20:25:25.063Z,17.26
2022-09-14T20:27:58.148Z,17.38
2022-09-14T20:30:38.220Z,17.38
2022-09-14T20:33:32.108Z,17.40
2022-09-14T20:36:10.826Z,17.39
2022-09-14T20:38:50.223Z,17.39
2022-09-14T20:41:21.799Z,17.33
2022-09-14T20:43:54.946Z,17.29
2022-09-14T20:46:35.981Z,17.31
2022-09-14T20:49:08.865Z,17.19
2022-09-14T20:51:37.855Z,17.15
2022-09-14T20:54:08.143Z,17.04
2022-09-14T20:56:36.860Z,17.11
2022-09-14T20:59:10.244Z,17.06
2022-09-14T21:01:39.701Z,17.01
2022-09-14T21:04:20.575Z,16.99
2022-09-14T21:06:52.762Z,16.98
2022-09-14T21:09:25.394Z,16.96
2022-09-14T21:11:54.372Z,16.84
2022-09-14T21:14:24.588Z,16.78
2022-09-14T21:17:04.667Z,16.73
2022-09-14T21:19:33.602Z,16.64
2022-09-14T21:22:04.690Z,16.66
2022-09-14T21:24:36.486Z,16.59
2022-09-14T21:27:06.252Z,16.58
2022-09-14T21:29:44.691Z,16.61
2022-09-14T21:32:17.119Z,16.51
2022-09-14T21:34:46.423Z,16.58
2022-09-14T21:37:15.621Z,16.46
2022-09-14T21:39:55.717Z,16.46
2022-09-14T21:42:24.467Z,16.49
2022-09-14T21:45:02.973Z,16.41
2022-09-14T21:47:31.145Z,16.42
2022-09-14T21:50:00.359Z,16.42
2022-09-14T21:52:38.012Z,16.46
2022-09-14T21:55:07.412Z,16.42
2022-09-14T21:57:39.007Z,16.56
2022-09-14T22:00:13.086Z,16.57
2022-09-14T22:02:45.507Z,16.52
2022-09-14T22:05:14.160Z,16.54
2022-09-14T22:07:46.661Z,16.50
2022-09-14T22:10:22.109Z,16.64
2022-09-14T22:12:51.768Z,16.58
2022-09-14T22:15:32.061Z,16.62
2022-09-14T22:18:07.629Z,16.56
2022-09-14T22:20:37.572Z,16.54
2022-09-14T22:23:09.173Z,16.60
2022-09-14T22:25:50.784Z,16.63
2022-09-14T22:28:30.138Z,16.70
2022-09-14T22:31:14.339Z,16.73
2022-09-14T22:33:53.036Z,16.74
2022-09-14T22:36:26.850Z,16.78
2022-09-14T22:39:00.493Z,16.82
2022-09-14T22:41:30.173Z,16.78
2022-09-14T22:44:04.312Z,16.79
2022-09-14T22:46:35.777Z,16.80
2022-09-14T22:55:17.518Z,16.68
2022-09-14T22:57:45.723Z,16.75
2022-09-14T23:00:21.315Z,16.85
2022-09-14T23:02:51.817Z,16.86
2022-09-14T23:05:23.309Z,16.84
2022-09-14T23:07:55.532Z,16.94
2022-09-14T23:13:20.689Z,16.96
2022-09-14T23:15:54.659Z,16.87
2022-09-14T23:18:24.424Z,16.98
2022-09-14T23:20:55.619Z,17.01
2022-09-14T23:23:27.193Z,17.02
2022-09-14T23:26:06.442Z,17.00
2022-09-14T23:28:35.717Z,17.10
2022-09-14T23:31:08.216Z,17.11
2022-09-14T23:33:39.596Z,17.11
2022-09-14T23:36:14.943Z,17.13
2022-09-14T23:38:43.564Z,17.07
2022-09-14T23:41:12.069Z,17.11
2022-09-14T23:43:39.718Z,17.14
2022-09-14T23:46:08.741Z,17.12
2022-09-14T23:48:40.159Z,17.15
2022-09-14T23:51:13.440Z,17.21
2022-09-14T23:53:51.724Z,17.24
2022-09-14T23:56:21.508Z,17.20
2022-09-14T23:58:50.903Z,17.19
